Jasper, Arkansas
Current Conditions -  °F | °C
As of 8:53 PM on Thursday 27 Nov 2014 (Local Time) from KHRO Reporting Station
Clear Clear  
Wind Chill: 32°   Ceiling: Unl
Heat Index: 32°   Visibility: 10mi
Dew Point: 23°   Wind: 3mph
Humidity: 69%   Direction: 140°SE
Pressure: 30.38"   Gusts: NA
Location:  36.01°N, 93.19°W
Report Text: KHRO 280253Z AUTO 14003KT 10SM CLR 00/M05 A3038 RMK AO2 SLP300 T00001050 56007
Loading
Personal Weather Stations






























Interactive Weather Map New forecast layout! Learn more

10-Day Weather Forecast

Advertisements
Track Severe Weather on mobile